Huvudsida
METAR-TAF:

METAR-TAF

Flygplatser :

Kirkenes flygplats. Høybuktmoen

Kirkenes, Norge

latitud: 69-44N, longitud: 029-54E, höjd: 9 m

Aktuellt väderrapport

Denna rapport gjordes för 30 minuter sedan, klockan 20:20 UTC
Vind 7 kt från syd/sydväst, varierande mellan syd/sydost och sydväst
Temperatur -11°C
Fuktighet 66%
Tryck 1022 hPa
Sikt 10 km eller mer
Inga moln under 1 500 m eller inga cumulonimbus

METAR: ENKR 212020Z 20007KT 160V230 CAVOK M11/M16 Q1022 RMK WIND 731FT 25024KT

Tid: 21:50 (20:50 UTC)

Väderprognos

Denna rapport gjordes för 50 minuter sedan, klockan 20:00 UTC
Prognos gäller från 21 kl. 21 UTC till 22 kl. 06 UTC
Vind 8 kt från sydväst
Sikt 10 km eller mer
Få moln på en höjd av 3000 ft
Spridda moln på en höjd av 5000 ft

TAF: ENKR 212000Z 2121/2206 23008KT 9999 FEW030 SCT050

Aktuella väderrapporter och prognoser från 4000 flygplatser (METAR- och TAF-rapporter).

De tillgängliga stationerna syns som gula och röda prickar på kartan.

För musen över prickarna för att se namnen på stationerna.

Klicka sedan för att få väderrapporter och prognoser.

För att ändra kartan: Klicka på de gröna knapparna med ett svart kors på för att zooma in; den gröna knappen med ett streck på för att zooma ut; eller på de gröna pilarna för angränsande kartor.


METAR-TAF: